Time;durP1;ratioP1;P1;durP2;ratioP2;P2;SDS_P1;SDS_P2;PMS_P1;PMS_P2;Temp;Humidity;BMP_temperature;BMP_pressure;BME280_temperature;BME280_humidity;BME280_pressure;Samples;Min_cycle;Max_cycle;Signal;HPM_P1;HPM_P2
2023/02/06 00:01:49;;;;;;;11.70;7.00;;;;;;;-2.03;78.16;102532.96;108324;1254;97105;-61
2023/02/06 00:04:18;;;;;;;12.90;7.50;;;;;;;-2.00;78.13;102537.52;107558;1252;111652;-60
2023/02/06 00:06:47;;;;;;;12.20;7.00;;;;;;;-1.99;77.87;102540.84;107613;1256;109710;-60
2023/02/06 00:09:16;;;;;;;13.80;7.30;;;;;;;-1.95;78.01;102542.40;107553;1252;108235;-62
2023/02/06 00:11:44;;;;;;;12.90;7.70;;;;;;;-1.94;77.71;102541.16;107543;1253;96491;-60
2023/02/06 00:14:13;;;;;;;13.50;7.30;;;;;;;-1.96;77.82;102539.77;107464;1256;97029;-59
2023/02/06 00:16:41;;;;;;;11.80;7.20;;;;;;;-1.98;77.64;102540.49;107492;1253;110782;-59
2023/02/06 00:19:10;;;;;;;10.80;7.10;;;;;;;-2.01;77.97;102539.81;107499;1253;109422;-59
2023/02/06 00:21:38;;;;;;;11.40;7.30;;;;;;;-2.02;77.83;102544.21;107436;1256;108431;-60
2023/02/06 00:24:07;;;;;;;12.40;7.40;;;;;;;-2.02;78.00;102540.17;107447;1253;96597;-59
2023/02/06 00:26:35;;;;;;;13.70;7.00;;;;;;;-2.01;77.85;102539.45;107508;1253;96573;-60
2023/02/06 00:29:03;;;;;;;12.00;6.20;;;;;;;-1.99;77.74;102540.67;107478;1253;110732;-60
2023/02/06 00:31:32;;;;;;;13.30;7.10;;;;;;;-1.99;77.75;102540.50;107530;1253;109751;-60
2023/02/06 00:34:02;;;;;;;11.20;7.20;;;;;;;-1.99;78.18;102535.92;107471;1253;108145;-59
2023/02/06 00:36:32;;;;;;;10.70;6.80;;;;;;;-1.99;78.44;102536.63;107503;1253;96465;-59
2023/02/06 00:39:00;;;;;;;12.40;7.50;;;;;;;-2.00;78.31;102534.70;107516;1253;96384;-60
2023/02/06 00:41:29;;;;;;;13.40;7.40;;;;;;;-2.01;78.40;102535.58;107478;1253;110053;-60
2023/02/06 00:43:57;;;;;;;11.90;7.30;;;;;;;-2.02;78.11;102530.14;107482;1253;109556;-60
2023/02/06 00:46:26;;;;;;;11.20;7.30;;;;;;;-2.02;78.70;102526.63;107516;1253;108079;-60
2023/02/06 00:48:55;;;;;;;11.30;7.10;;;;;;;-2.02;78.67;102530.33;107485;1253;97833;-59
2023/02/06 00:51:24;;;;;;;12.90;7.60;;;;;;;-2.02;78.92;102529.63;107571;1253;96494;-60
2023/02/06 00:53:52;;;;;;;25.00;7.70;;;;;;;-2.02;79.04;102528.73;107585;1253;110693;-59
2023/02/06 00:56:20;;;;;;;12.40;7.10;;;;;;;-2.02;79.18;102526.81;107534;1254;109682;-59
2023/02/06 00:58:49;;;;;;;11.10;7.00;;;;;;;-2.02;79.19;102522.23;107576;1254;108652;-58
2023/02/06 01:01:17;;;;;;;14.80;8.30;;;;;;;-2.01;79.32;102519.05;107619;1254;96600;-59
2023/02/06 01:03:46;;;;;;;12.70;7.90;;;;;;;-2.00;79.02;102521.69;107625;1253;96467;-59
2023/02/06 01:06:15;;;;;;;14.50;8.50;;;;;;;-2.01;79.07;102517.64;107655;1254;110792;-61
2023/02/06 01:08:44;;;;;;;11.80;7.30;;;;;;;-1.99;79.17;102513.77;107620;1253;109666;-60
2023/02/06 01:11:20;;;;;;;17.60;8.70;;;;;;;-1.97;79.57;102520.10;107530;1254;108572;-60
2023/02/06 01:13:48;;;;;;;12.20;7.30;;;;;;;-1.98;79.65;102516.05;107589;1253;96511;-60
2023/02/06 01:16:20;;;;;;;12.20;7.80;;;;;;;-1.99;79.57;102516.40;107618;1254;96424;-60
2023/02/06 01:18:49;;;;;;;10.80;7.30;;;;;;;-2.01;79.88;102515.17;107634;1252;110983;-60
2023/02/06 01:21:21;;;;;;;14.40;8.30;;;;;;;-2.01;79.39;102515.01;107595;1254;109656;-59
2023/02/06 01:23:52;;;;;;;13.10;7.20;;;;;;;-2.01;79.74;102520.12;107622;1254;108032;-60
2023/02/06 01:26:24;;;;;;;12.50;7.90;;;;;;;-2.00;79.84;102524.84;107586;1254;96476;-60
2023/02/06 01:28:54;;;;;;;12.90;7.60;;;;;;;-2.00;79.76;102528.19;107590;1254;96378;-60
2023/02/06 01:31:26;;;;;;;15.50;8.60;;;;;;;-2.00;79.88;102527.84;107596;1254;110531;-59
2023/02/06 01:33:56;;;;;;;14.00;7.60;;;;;;;-2.00;79.65;102535.58;107578;1254;110220;-59
2023/02/06 01:36:26;;;;;;;17.40;8.10;;;;;;;-2.00;79.79;102535.05;107530;1253;108502;-60
2023/02/06 01:38:56;;;;;;;18.60;9.40;;;;;;;-2.01;80.09;102537.68;107592;1252;96468;-61
2023/02/06 01:41:25;;;;;;;12.50;7.30;;;;;;;-2.02;80.23;102533.67;107590;1253;97001;-59
2023/02/06 01:44:09;;;;;;;11.60;6.70;;;;;;;-2.05;80.57;102529.63;107578;1253;110431;-60
2023/02/06 01:46:43;;;;;;;14.60;8.00;;;;;;;-2.06;80.53;102530.17;107639;1253;110868;-59
2023/02/06 01:49:24;;;;;;;13.30;8.20;;;;;;;-2.07;80.75;102531.23;107558;1254;108226;-59
2023/02/06 01:51:59;;;;;;;13.70;8.30;;;;;;;-2.09;81.03;102540.40;107595;1254;96481;-59
2023/02/06 01:54:27;;;;;;;;;;;;;;;-2.10;81.10;102535.98;107535;1252;96515;-59
2023/02/06 01:57:01;;;;;;;17.30;8.10;;;;;;;-2.09;80.92;102534.95;107607;1254;110579;-60
2023/02/06 01:59:29;;;;;;;;;;;;;;;-2.09;80.89;102534.05;107596;1253;109197;-60
2023/02/06 02:01:58;;;;;;;12.90;7.80;;;;;;;-2.09;80.58;102535.81;107570;1253;109420;-59
2023/02/06 02:04:30;;;;;;;15.50;8.40;;;;;;;-2.08;80.73;102539.16;107584;1254;96473;-58
2023/02/06 02:07:10;;;;;;;12.60;7.20;;;;;;;-2.09;80.84;102538.29;107606;1254;96542;-61
2023/02/06 02:09:39;;;;;;;14.20;7.00;;;;;;;-2.08;80.78;102536.52;107620;1254;109944;-60
2023/02/06 02:12:07;;;;;;;13.50;8.10;;;;;;;-2.07;80.80;102534.05;107532;1254;109786;-60
2023/02/06 02:14:38;;;;;;;11.50;6.90;;;;;;;-2.06;80.92;102535.10;107630;1256;107585;-60
2023/02/06 02:17:40;;;;;;;11.40;6.20;;;;;;;-2.05;80.38;102537.37;107574;1254;96456;-59
2023/02/06 02:20:45;;;;;;;14.90;7.70;;;;;;;-2.06;79.71;102543.38;107596;1252;96382;-61
2023/02/06 02:23:43;;;;;;;14.70;7.50;;;;;;;-2.09;79.66;102548.83;107558;1257;110085;-61
2023/02/06 02:26:14;;;;;;;10.10;6.20;;;;;;;-2.08;79.51;102553.22;107457;1254;112615;-59
2023/02/06 02:29:04;;;;;;;10.70;6.80;;;;;;;-2.07;79.57;102551.98;107583;1255;108461;-60
2023/02/06 02:31:54;;;;;;;13.50;6.80;;;;;;;-2.09;79.15;102548.65;107618;1254;97514;-59
2023/02/06 02:34:29;;;;;;;12.30;6.30;;;;;;;-2.12;78.75;102553.08;107632;1254;96380;-59
2023/02/06 02:37:42;;;;;;;10.40;6.50;;;;;;;-2.13;78.51;102555.89;107601;1254;110424;-60
2023/02/06 02:40:32;;;;;;;10.30;5.60;;;;;;;-2.14;78.30;102565.56;107394;1254;109907;-61
2023/02/06 02:43:13;;;;;;;10.50;6.30;;;;;;;-2.13;78.63;102569.59;107604;1254;108381;-59
2023/02/06 02:46:30;;;;;;;10.80;6.40;;;;;;;-2.10;78.02;102566.95;107547;1254;96491;-61
2023/02/06 02:49:04;;;;;;;13.40;6.90;;;;;;;-2.10;77.65;102576.09;107496;1252;97016;-60
2023/02/06 02:51:37;;;;;;;11.30;6.80;;;;;;;-2.11;77.51;102577.32;107604;1254;110613;-59
2023/02/06 02:54:06;;;;;;;11.40;6.40;;;;;;;-2.10;77.43;102583.30;107595;1253;109647;-60
2023/02/06 02:56:34;;;;;;;11.40;6.70;;;;;;;-2.08;77.05;102587.85;107540;1254;108322;-60
2023/02/06 02:59:22;;;;;;;8.20;5.60;;;;;;;-2.07;76.81;102592.59;107561;1254;96533;-60
2023/02/06 03:02:17;;;;;;;10.70;6.30;;;;;;;-2.06;75.98;102594.69;107579;1258;96369;-60
2023/02/06 03:04:54;;;;;;;10.20;5.70;;;;;;;-2.05;75.60;102591.00;107568;1254;110420;-60
2023/02/06 03:07:46;;;;;;;7.10;4.70;;;;;;;-2.05;75.28;102592.75;107605;1254;109905;-59
2023/02/06 03:10:46;;;;;;;14.40;6.60;;;;;;;-2.07;75.22;102597.70;107601;1254;107954;-60
2023/02/06 03:13:36;;;;;;;8.90;5.60;;;;;;;-2.09;75.32;102601.39;107528;1253;96488;-59
2023/02/06 03:16:44;;;;;;;10.10;5.90;;;;;;;-2.08;74.95;102604.02;107542;1253;96488;-60
2023/02/06 03:19:26;;;;;;;10.00;5.30;;;;;;;-2.09;73.97;102598.93;106938;1262;110819;-61
2023/02/06 03:21:54;;;;;;;8.20;4.70;;;;;;;-2.11;74.35;102604.05;107461;1253;109703;-60
2023/02/06 03:24:26;;;;;;;8.60;5.00;;;;;;;-2.11;74.26;102600.36;107413;1254;108766;-60
2023/02/06 03:26:59;;;;;;;11.70;6.30;;;;;;;-2.13;74.18;102605.98;107483;1254;96574;-61
2023/02/06 03:29:32;;;;;;;10.20;6.20;;;;;;;-2.14;74.46;102607.75;107480;1254;97077;-61
2023/02/06 03:32:29;;;;;;;8.70;5.40;;;;;;;-2.14;74.09;102608.81;107563;1253;109401;-61
2023/02/06 03:35:03;;;;;;;7.90;4.80;;;;;;;-2.16;73.98;102608.47;107470;1254;109728;-60
2023/02/06 03:37:34;;;;;;;9.30;5.70;;;;;;;-2.19;73.68;102610.24;107502;1253;108102;-60
2023/02/06 03:40:04;;;;;;;11.40;7.00;;;;;;;-2.20;74.24;102609.19;107518;1257;96480;-61
2023/02/06 03:42:37;;;;;;;8.90;5.60;;;;;;;-2.20;74.37;102609.38;107465;1253;97021;-62
2023/02/06 03:45:16;;;;;;;8.60;5.60;;;;;;;-2.21;73.97;102610.97;107510;1254;110006;-60
2023/02/06 03:47:47;;;;;;;7.60;5.30;;;;;;;-2.23;74.33;102614.31;107578;1253;108835;-62
2023/02/06 03:50:17;;;;;;;15.50;6.40;;;;;;;-2.23;74.42;102614.14;107567;1257;108242;-59
2023/02/06 03:52:49;;;;;;;10.20;5.60;;;;;;;-2.23;73.76;102616.06;107589;1254;96490;-60
2023/02/06 03:55:21;;;;;;;8.60;4.70;;;;;;;-2.23;73.81;102617.30;107651;1254;97045;-60
2023/02/06 03:57:53;;;;;;;10.00;6.50;;;;;;;-2.23;74.01;102623.27;107620;1253;109165;-60
2023/02/06 04:00:24;;;;;;;9.90;4.80;;;;;;;-2.24;74.18;102623.64;107562;1254;109229;-60
2023/02/06 04:02:55;;;;;;;11.40;5.50;;;;;;;-2.25;73.96;102619.95;107580;1253;108284;-59
2023/02/06 04:05:23;;;;;;;9.30;4.90;;;;;;;-2.24;73.79;102633.65;107608;1254;96518;-59
2023/02/06 04:07:55;;;;;;;8.50;5.40;;;;;;;-2.23;73.32;102632.94;107605;1252;96377;-59
2023/02/06 04:10:23;;;;;;;9.50;5.30;;;;;;;-2.24;73.65;102632.42;107549;1256;110656;-59
2023/02/06 04:12:53;;;;;;;10.50;6.20;;;;;;;-2.21;73.24;102640.66;107552;1254;110176;-59
2023/02/06 04:15:22;;;;;;;13.20;6.40;;;;;;;-2.22;73.23;102637.86;107552;1253;105624;-60
2023/02/06 04:17:51;;;;;;;10.70;5.40;;;;;;;-2.22;73.05;102635.58;107536;1253;96478;-60
2023/02/06 04:20:28;;;;;;;11.80;5.70;;;;;;;-2.25;72.51;102636.83;107571;1253;96517;-60
2023/02/06 04:22:57;;;;;;;10.90;6.20;;;;;;;-2.28;73.04;102641.58;107622;1253;110510;-60
2023/02/06 04:25:26;;;;;;;8.50;4.80;;;;;;;-2.29;72.96;102633.86;107600;1254;109230;-59
2023/02/06 04:27:54;;;;;;;12.90;6.80;;;;;;;-2.29;72.67;102640.90;107594;1253;108894;-60
2023/02/06 04:30:23;;;;;;;9.40;6.40;;;;;;;-2.30;72.61;102642.30;107568;1254;96484;-59
2023/02/06 04:32:52;;;;;;;7.60;4.90;;;;;;;-2.30;72.32;102641.08;107623;1256;96444;-61
2023/02/06 04:35:20;;;;;;;7.80;5.30;;;;;;;-2.31;72.16;102645.82;107581;1253;109272;-59
2023/02/06 04:37:48;;;;;;;12.70;5.70;;;;;;;-2.33;72.14;102654.77;107573;1253;110770;-60
2023/02/06 04:40:17;;;;;;;14.40;5.60;;;;;;;-2.33;72.43;102660.06;107567;1254;108183;-61
2023/02/06 04:42:45;;;;;;;8.70;4.70;;;;;;;-2.33;72.16;102662.69;107557;1254;96514;-61
2023/02/06 04:45:14;;;;;;;9.30;4.90;;;;;;;-2.33;72.24;102663.75;107617;1254;97006;-62
2023/02/06 04:47:42;;;;;;;10.70;6.00;;;;;;;-2.32;72.05;102671.13;107581;1253;111640;-60
2023/02/06 04:50:10;;;;;;;8.50;5.00;;;;;;;-2.32;72.23;102673.41;107571;1253;110287;-60
2023/02/06 04:52:39;;;;;;;10.10;5.90;;;;;;;-2.29;72.34;102674.63;107555;1258;107714;-62
2023/02/06 04:55:08;;;;;;;9.30;5.90;;;;;;;-2.30;72.47;102679.73;107535;1253;96446;-60
2023/02/06 04:57:37;;;;;;;9.30;4.80;;;;;;;-2.30;72.62;102683.42;107564;1253;96449;-60
2023/02/06 05:00:07;;;;;;;12.60;7.00;;;;;;;-2.32;73.03;102685.55;107564;1253;110518;-60
2023/02/06 05:02:38;;;;;;;9.70;5.90;;;;;;;-2.34;73.30;102694.16;107555;1259;110160;-59
2023/02/06 05:05:08;;;;;;;10.40;5.80;;;;;;;-2.36;73.68;102695.73;107544;1257;108638;-59
2023/02/06 05:07:36;;;;;;;11.90;6.80;;;;;;;-2.36;73.77;102698.20;107415;1253;96629;-59
2023/02/06 05:10:07;;;;;;;11.70;6.40;;;;;;;-2.36;74.62;102709.09;107567;1253;96490;-59
2023/02/06 05:12:36;;;;;;;11.70;6.00;;;;;;;-2.38;74.66;102712.62;107576;1253;110726;-60
2023/02/06 05:15:05;;;;;;;7.90;4.90;;;;;;;-2.39;74.79;102712.98;107581;1253;110189;-60
2023/02/06 05:17:34;;;;;;;10.60;6.30;;;;;;;-2.39;75.08;102717.37;107574;1256;108210;-61
2023/02/06 05:20:03;;;;;;;12.70;7.30;;;;;;;-2.39;75.73;102721.59;107593;1256;96472;-60
2023/02/06 05:22:31;;;;;;;11.30;7.00;;;;;;;-2.39;75.74;102721.42;107602;1254;97028;-59
2023/02/06 05:25:00;;;;;;;14.00;8.50;;;;;;;-2.38;76.16;102722.63;107598;1254;110242;-60
2023/02/06 05:27:28;;;;;;;11.50;6.40;;;;;;;-2.37;76.46;102726.14;107598;1254;110181;-59
2023/02/06 05:29:57;;;;;;;11.00;6.50;;;;;;;-2.37;76.63;102729.14;107609;1254;108250;-59
2023/02/06 05:32:25;;;;;;;12.70;7.40;;;;;;;-2.37;77.08;102729.30;107551;1254;96542;-61
2023/02/06 05:34:54;;;;;;;10.20;6.70;;;;;;;-2.36;77.28;102728.61;107585;1253;97064;-60
2023/02/06 05:37:22;;;;;;;9.00;4.30;;;;;;;-2.37;77.57;102736.70;107555;1254;109935;-59
2023/02/06 05:39:50;;;;;;;12.80;6.40;;;;;;;-2.37;77.63;102742.32;107560;1254;111274;-61
2023/02/06 05:42:19;;;;;;;13.80;6.60;;;;;;;-2.38;78.15;102744.09;107564;1254;108574;-60
2023/02/06 05:44:47;;;;;;;14.50;7.60;;;;;;;-2.40;77.77;102748.48;107546;1254;96340;-60
2023/02/06 05:47:15;;;;;;;10.90;6.50;;;;;;;-2.38;77.85;102749.17;107547;1254;97013;-60
2023/02/06 05:49:44;;;;;;;10.90;6.80;;;;;;;-2.34;77.83;102748.98;107500;1253;111025;-60
2023/02/06 05:52:13;;;;;;;13.80;8.80;;;;;;;-2.28;77.85;102757.05;107592;1254;108855;-60
2023/02/06 05:54:41;;;;;;;11.20;6.50;;;;;;;-2.23;77.94;102755.47;107558;1254;108598;-59
2023/02/06 05:57:10;;;;;;;15.70;7.60;;;;;;;-2.16;77.74;102760.54;107536;1252;96480;-60
2023/02/06 05:59:39;;;;;;;11.70;7.50;;;;;;;-2.09;77.83;102761.56;107565;1254;96348;-59
2023/02/06 06:02:08;;;;;;;11.90;6.20;;;;;;;-2.03;77.70;102765.77;107558;1254;110883;-59
2023/02/06 06:04:37;;;;;;;15.20;9.00;;;;;;;-1.96;77.53;102766.27;107612;1254;109701;-59
2023/02/06 06:07:05;;;;;;;14.30;7.30;;;;;;;-1.93;77.67;102767.81;107589;1254;106611;-61
2023/02/06 06:09:33;;;;;;;14.50;7.60;;;;;;;-1.90;77.10;102767.48;107568;1253;96506;-60
2023/02/06 06:12:02;;;;;;;12.80;6.30;;;;;;;-1.90;77.13;102764.12;107588;1254;97518;-58
2023/02/06 06:14:31;;;;;;;13.10;7.60;;;;;;;-1.86;77.21;102764.64;107636;1256;109857;-60
2023/02/06 06:17:00;;;;;;;14.00;8.00;;;;;;;-1.90;76.84;102766.42;107561;1254;110033;-60
2023/02/06 06:19:28;;;;;;;12.40;6.10;;;;;;;-1.88;76.93;102769.40;107594;1256;107373;-61
2023/02/06 06:21:56;;;;;;;13.10;7.40;;;;;;;-1.85;76.74;102772.56;107522;1254;96549;-60
2023/02/06 06:24:26;;;;;;;13.00;7.50;;;;;;;-1.81;76.78;102775.52;107563;1254;96364;-60
2023/02/06 06:26:54;;;;;;;18.40;8.90;;;;;;;-1.77;76.71;102777.45;107571;1254;109993;-63
2023/02/06 06:29:23;;;;;;;15.60;8.20;;;;;;;-1.74;75.91;102775.15;107587;1256;109662;-60
2023/02/06 06:31:52;;;;;;;14.70;6.50;;;;;;;-1.70;76.20;102774.95;107530;1254;108384;-60
2023/02/06 06:34:21;;;;;;;15.20;7.40;;;;;;;-1.67;75.47;102777.91;107555;1254;96597;-60
2023/02/06 06:36:49;;;;;;;11.70;6.90;;;;;;;-1.66;75.65;102778.80;107594;1254;96373;-59
2023/02/06 06:39:17;;;;;;;15.40;7.40;;;;;;;-1.60;75.76;102777.70;107585;1254;109461;-60
2023/02/06 06:41:46;;;;;;;11.80;7.50;;;;;;;-1.56;75.71;102775.40;107576;1254;111021;-60
2023/02/06 06:44:14;;;;;;;12.80;7.30;;;;;;;-1.51;75.35;102780.47;107572;1254;106861;-60
2023/02/06 06:46:43;;;;;;;13.40;7.20;;;;;;;-1.48;75.06;102780.46;107524;1253;96370;-60
2023/02/06 06:49:12;;;;;;;15.00;7.30;;;;;;;-1.48;75.19;102784.33;107557;1253;97038;-59
2023/02/06 06:51:40;;;;;;;11.90;6.60;;;;;;;-1.45;74.84;102779.91;107561;1257;111394;-60
2023/02/06 06:54:09;;;;;;;15.80;7.00;;;;;;;-1.44;74.74;102778.33;107503;1259;109660;-59
2023/02/06 06:56:37;;;;;;;12.30;8.00;;;;;;;-1.45;74.67;102780.80;107549;1254;108334;-60
2023/02/06 06:59:05;;;;;;;11.90;6.70;;;;;;;-1.44;74.63;102779.20;107497;1254;96507;-61
2023/02/06 07:01:34;;;;;;;9.70;6.00;;;;;;;-1.40;74.68;102784.45;107552;1254;97090;-61
2023/02/06 07:04:02;;;;;;;10.30;6.20;;;;;;;-1.35;74.21;102786.00;107540;1253;108954;-60
2023/02/06 07:06:31;;;;;;;11.20;7.20;;;;;;;-1.33;74.37;102787.06;107565;1257;109425;-61
2023/02/06 07:08:59;;;;;;;11.10;6.80;;;;;;;-1.26;74.60;102785.60;107524;1254;107842;-60
2023/02/06 07:11:28;;;;;;;13.60;7.40;;;;;;;-1.17;74.58;102789.06;107537;1253;96574;-59
2023/02/06 07:13:56;;;;;;;14.90;7.20;;;;;;;-1.08;74.19;102793.94;107529;1254;96333;-60
2023/02/06 07:16:24;;;;;;;12.40;6.80;;;;;;;-1.01;73.97;102794.95;107591;1254;109284;-60
2023/02/06 07:18:53;;;;;;;15.10;7.60;;;;;;;-0.94;73.46;102796.30;107524;1256;108512;-61
2023/02/06 07:21:21;;;;;;;12.90;8.00;;;;;;;-0.85;73.70;102801.16;107606;1254;107434;-60
2023/02/06 07:23:50;;;;;;;12.20;8.10;;;;;;;-0.75;73.80;102803.17;107603;1254;96504;-58
2023/02/06 07:26:18;;;;;;;13.80;8.20;;;;;;;-0.68;73.72;102802.08;107664;1255;96375;-60
2023/02/06 07:28:48;;;;;;;13.80;8.90;;;;;;;-0.60;73.76;102799.02;107567;1254;110464;-60
2023/02/06 07:31:17;;;;;;;16.70;8.60;;;;;;;-0.54;73.21;102806.17;107625;1254;109268;-60
2023/02/06 07:33:45;;;;;;;18.30;9.00;;;;;;;-0.51;73.07;102810.55;107661;1254;107757;-59
2023/02/06 07:36:15;;;;;;;13.30;8.40;;;;;;;-0.55;72.38;102815.52;107579;1254;96483;-60
2023/02/06 07:38:43;;;;;;;14.40;8.50;;;;;;;-0.64;72.77;102820.54;107619;1254;96488;-60
2023/02/06 07:41:11;;;;;;;13.20;8.50;;;;;;;-0.67;73.03;102820.39;107551;1254;110303;-59
2023/02/06 07:43:39;;;;;;;16.80;8.60;;;;;;;-0.66;73.43;102818.96;107611;1254;110076;-58
2023/02/06 07:46:08;;;;;;;14.50;8.80;;;;;;;-0.68;73.53;102818.82;107559;1257;107572;-61
2023/02/06 07:48:37;;;;;;;12.50;8.60;;;;;;;-0.64;73.75;102816.84;107572;1254;96479;-60
2023/02/06 07:51:08;;;;;;;16.40;9.70;;;;;;;-0.57;73.59;102817.14;107571;1254;97015;-59
2023/02/06 07:53:37;;;;;;;17.50;9.90;;;;;;;-0.51;73.83;102821.30;107571;1254;110968;-60
2023/02/06 07:56:14;;;;;;;12.80;7.70;;;;;;;-0.42;73.92;102825.81;107613;1256;109992;-62
2023/02/06 07:58:46;;;;;;;15.50;8.20;;;;;;;-0.34;73.71;102826.78;107601;1254;108518;-62
2023/02/06 08:01:14;;;;;;;15.50;9.00;;;;;;;-0.32;73.65;102828.00;107660;1257;96473;-59
2023/02/06 08:03:43;;;;;;;14.60;8.30;;;;;;;-0.24;73.66;102828.10;107662;1254;96367;-61
2023/02/06 08:06:14;;;;;;;12.30;8.40;;;;;;;-0.17;73.27;102828.91;107693;1254;110554;-60
2023/02/06 08:08:43;;;;;;;13.30;8.50;;;;;;;-0.13;72.96;102829.77;107723;1256;110150;-59
2023/02/06 08:11:14;;;;;;;16.30;8.30;;;;;;;-0.13;72.38;102833.10;107640;1255;108054;-61
2023/02/06 08:13:45;;;;;;;12.50;7.70;;;;;;;-0.14;72.13;102832.58;107585;1254;96484;-62
2023/02/06 08:16:16;;;;;;;12.60;7.60;;;;;;;-0.20;71.55;102832.11;107619;1254;97044;-60
2023/02/06 08:18:45;;;;;;;13.40;7.30;;;;;;;-0.32;70.48;102825.89;107629;1255;110411;-60
2023/02/06 08:21:21;;;;;;;11.60;7.60;;;;;;;-0.40;69.90;102826.66;107590;1255;109051;-59
2023/02/06 08:23:55;;;;;;;11.90;7.00;;;;;;;-0.51;69.82;102830.66;107598;1254;108838;-59
2023/02/06 08:26:26;;;;;;;10.10;7.00;;;;;;;-0.54;69.30;102828.03;107643;1254;96537;-60
2023/02/06 08:28:56;;;;;;;14.20;7.40;;;;;;;-0.53;68.87;102827.49;107630;1251;97131;-60
2023/02/06 08:31:27;;;;;;;10.00;5.70;;;;;;;-0.55;69.02;102821.00;107598;1255;109567;-60
2023/02/06 08:33:56;;;;;;;14.30;7.40;;;;;;;-0.59;68.54;102828.45;107604;1254;110108;-59
2023/02/06 08:36:26;;;;;;;12.30;6.30;;;;;;;-0.62;68.67;102833.39;107586;1256;108059;-59
2023/02/06 08:38:54;;;;;;;9.00;5.70;;;;;;;-0.62;68.31;102835.50;107531;1256;96463;-59
2023/02/06 08:41:28;;;;;;;13.00;6.40;;;;;;;-0.66;68.16;102841.36;107679;1253;96479;-61
2023/02/06 08:43:59;;;;;;;12.40;7.50;;;;;;;-0.70;68.22;102847.02;107597;1254;108893;-60
2023/02/06 08:46:30;;;;;;;12.40;7.30;;;;;;;-0.70;68.43;102844.39;107648;1254;109113;-59
2023/02/06 08:49:09;;;;;;;14.50;8.20;;;;;;;-0.70;68.31;102848.61;107617;1254;107840;-59
2023/02/06 08:51:38;;;;;;;15.10;7.60;;;;;;;-0.71;68.31;102852.67;107551;1256;96974;-59
2023/02/06 08:54:10;;;;;;;17.60;7.30;;;;;;;-0.73;68.21;102854.45;107605;1254;97000;-60
2023/02/06 08:56:39;;;;;;;13.80;8.50;;;;;;;-0.76;68.78;102856.40;107584;1254;109989;-58
2023/02/06 08:59:09;;;;;;;12.90;7.80;;;;;;;-0.72;68.82;102856.91;107535;1255;109726;-62
2023/02/06 09:01:38;;;;;;;14.20;8.20;;;;;;;-0.69;68.79;102857.95;107580;1256;107573;-60
2023/02/06 09:04:10;;;;;;;12.60;7.70;;;;;;;-0.66;69.03;102858.80;107514;1254;96485;-61
2023/02/06 09:06:41;;;;;;;15.40;9.50;;;;;;;-0.60;68.99;102858.41;107485;1254;96606;-61
2023/02/06 09:09:11;;;;;;;12.70;7.60;;;;;;;-0.52;69.18;102849.87;107571;1254;110587;-60
2023/02/06 09:11:41;;;;;;;14.00;8.30;;;;;;;-0.42;68.74;102849.26;107584;1251;110123;-62
2023/02/06 09:14:14;;;;;;;14.10;8.30;;;;;;;-0.31;68.93;102845.10;107563;1254;108392;-60
2023/02/06 09:16:43;;;;;;;11.50;7.10;;;;;;;-0.13;68.99;102844.73;107630;1255;96477;-60
2023/02/06 09:19:11;;;;;;;10.10;6.30;;;;;;;0.01;67.76;102838.25;107652;1254;96385;-59
2023/02/06 09:21:40;;;;;;;11.60;6.80;;;;;;;0.09;65.94;102835.16;107694;1255;109560;-59
2023/02/06 09:24:09;;;;;;;13.20;7.80;;;;;;;0.18;65.31;102833.11;107653;1254;109614;-60
2023/02/06 09:26:39;;;;;;;12.20;7.40;;;;;;;0.29;65.00;102834.23;107649;1254;109209;-60
2023/02/06 09:29:28;;;;;;;10.20;6.00;;;;;;;0.34;65.16;102831.52;107609;1255;96547;-61
2023/02/06 09:31:57;;;;;;;9.90;4.50;;;;;;;0.37;64.36;102828.29;107606;1254;96510;-59
2023/02/06 09:34:26;;;;;;;8.90;5.20;;;;;;;0.35;63.59;102827.80;107585;1256;110190;-60
2023/02/06 09:36:55;;;;;;;15.60;6.60;;;;;;;0.29;63.71;102832.11;107617;1256;109761;-61
2023/02/06 09:39:24;;;;;;;10.00;6.30;;;;;;;0.29;63.94;102831.58;107623;1254;108682;-59
2023/02/06 09:42:05;;;;;;;10.90;5.90;;;;;;;0.39;63.56;102817.51;107564;1254;96506;-60
2023/02/06 09:44:37;;;;;;;11.10;6.80;;;;;;;0.47;63.11;102820.23;107667;1256;96606;-59
2023/02/06 09:47:31;;;;;;;8.70;5.40;;;;;;;0.55;62.91;102823.30;107616;1255;110939;-60
2023/02/06 09:50:06;;;;;;;13.50;7.20;;;;;;;0.59;62.53;102828.18;107632;1254;110161;-61
2023/02/06 09:52:44;;;;;;;11.80;5.70;;;;;;;0.60;62.65;102822.87;107616;1254;107175;-61
2023/02/06 09:55:32;;;;;;;9.90;6.10;;;;;;;0.63;62.59;102830.06;107605;1254;96590;-59
2023/02/06 09:58:41;;;;;;;10.40;6.10;;;;;;;0.60;62.31;102820.75;107636;1254;97020;-60
2023/02/06 10:01:28;;;;;;;9.40;5.90;;;;;;;0.54;61.53;102826.66;107617;1254;110726;-60
2023/02/06 10:04:11;;;;;;;11.10;6.20;;;;;;;0.42;62.75;102824.88;107575;1254;109332;-60
2023/02/06 10:06:53;;;;;;;12.00;5.50;;;;;;;0.33;62.92;102822.52;107526;1254;108727;-61
2023/02/06 10:09:43;;;;;;;11.90;6.50;;;;;;;0.22;62.94;102821.25;107672;1254;96481;-61
2023/02/06 10:12:34;;;;;;;12.60;7.40;;;;;;;0.07;63.52;102823.89;107475;1254;96389;-60
2023/02/06 10:15:15;;;;;;;11.20;6.90;;;;;;;0.03;64.49;102823.40;107647;1255;110841;-60
2023/02/06 10:17:55;;;;;;;9.70;5.70;;;;;;;0.08;64.61;102816.81;107681;1254;109769;-60
2023/02/06 10:20:50;;;;;;;9.20;5.90;;;;;;;0.19;64.06;102815.81;107584;1252;106265;-60
2023/02/06 10:23:31;;;;;;;8.20;5.20;;;;;;;0.29;63.54;102815.35;107636;1253;96635;-59
2023/02/06 10:26:21;;;;;;;9.40;5.00;;;;;;;0.35;62.64;102811.20;107627;1254;96578;-60
2023/02/06 10:28:55;;;;;;;11.90;6.80;;;;;;;0.37;63.22;102818.41;107688;1255;110768;-61
2023/02/06 10:31:23;;;;;;;9.20;5.70;;;;;;;0.40;63.64;102815.73;107573;1254;109172;-60
2023/02/06 10:34:11;;;;;;;7.40;5.20;;;;;;;0.41;63.83;102816.42;107609;1254;107160;-59
2023/02/06 10:36:48;;;;;;;10.70;6.10;;;;;;;0.41;64.10;102818.89;107553;1257;96481;-60
2023/02/06 10:39:32;;;;;;;10.40;6.60;;;;;;;0.42;63.60;102813.40;107620;1254;97022;-60
2023/02/06 10:42:37;;;;;;;10.90;6.20;;;;;;;0.40;63.92;102818.02;107555;1255;110928;-60
2023/02/06 10:45:30;;;;;;;13.40;6.80;;;;;;;0.37;63.72;102821.76;107061;1253;779422;-59
2023/02/06 10:48:37;;;;;;;10.70;6.90;;;;;;;0.43;64.12;102823.10;107626;1254;109416;-59
2023/02/06 10:51:26;;;;;;;12.50;6.60;;;;;;;0.52;64.15;102825.11;107591;1253;96469;-59
2023/02/06 10:54:16;;;;;;;10.80;7.00;;;;;;;0.56;64.12;102827.87;107680;1253;97182;-60
2023/02/06 10:56:46;;;;;;;11.30;6.80;;;;;;;0.58;64.18;102832.62;107601;1254;110591;-60
2023/02/06 10:59:33;;;;;;;12.30;6.30;;;;;;;0.60;63.91;102828.70;107635;1254;108748;-60
2023/02/06 11:02:15;;;;;;;16.20;7.20;;;;;;;0.59;64.06;102834.90;107685;1254;108067;-60
2023/02/06 11:04:49;;;;;;;12.70;6.80;;;;;;;0.59;63.59;102832.42;107620;1253;96566;-60
2023/02/06 11:07:25;;;;;;;12.60;5.10;;;;;;;0.57;62.64;102833.34;107691;1254;96633;-61
2023/02/06 11:09:54;;;;;;;9.10;5.90;;;;;;;0.54;62.67;102834.96;107693;1255;110359;-61
2023/02/06 11:12:34;;;;;;;11.70;7.30;;;;;;;0.53;62.87;102833.76;107649;1254;109882;-60
2023/02/06 11:15:31;;;;;;;10.90;6.40;;;;;;;0.55;62.77;102832.66;107606;1254;106987;-61
2023/02/06 11:18:03;;;;;;;11.20;6.60;;;;;;;0.57;61.91;102834.92;107560;1254;96499;-59
2023/02/06 11:20:35;;;;;;;9.40;6.40;;;;;;;0.72;62.30;102834.54;107660;1254;97034;-61
2023/02/06 11:23:21;;;;;;;12.20;6.40;;;;;;;0.89;61.89;102833.42;107709;1254;110543;-59
2023/02/06 11:26:13;;;;;;;11.50;6.80;;;;;;;0.98;61.45;102829.23;107638;1254;109134;-61
2023/02/06 11:29:08;;;;;;;10.10;6.40;;;;;;;1.02;61.10;102833.39;107518;1254;108655;-60
2023/02/06 11:31:36;;;;;;;9.90;6.20;;;;;;;1.03;60.84;102833.56;107604;1254;96498;-60
2023/02/06 11:34:17;;;;;;;8.00;5.80;;;;;;;1.00;60.42;102826.73;107620;1254;96477;-60
2023/02/06 11:36:50;;;;;;;16.30;6.80;;;;;;;0.95;60.15;102826.45;107625;1251;110582;-60
2023/02/06 11:39:20;;;;;;;;;;;;;;;0.95;60.93;102824.32;107752;1254;109854;-60